Terminal Aerodrome Forecast
Issued by NWS Sterling, VA

Current Version | Previous Version | Graphics & Text | Print | Product List | Glossary On
Versions: 1 2 3 4 5 6 7 8 9 10 11 12 13 14 15 16 17 18 19 20 21 22 23
224
FTUS41 KLWX 171732
TAFIAD
TAF
KIAD 171732Z 1718/1824 27014G24KT P6SM OVC050
     FM180200 29008KT P6SM FEW250
     FM180600 VRB03KT P6SM SKC
     FM181400 25008KT P6SM FEW050
     FM182000 20007KT P6SM BKN050
     FM182300 15005KT P6SM BKN040=

USA.gov is the U.S. government's official web portal to all federal, state and local government web resources and services.